sensor_id;sensor_type;location;lat;lon;timestamp;P1;durP1;ratioP1;P2;durP2;ratioP2
60869;SDS011;46710;43.680;4.132;2022-08-21T00:01:47;1.42;;;0.98;;
60869;SDS011;46710;43.680;4.132;2022-08-21T00:04:14;2.58;;;0.90;;
60869;SDS011;46710;43.680;4.132;2022-08-21T00:06:40;0.70;;;0.70;;
60869;SDS011;46710;43.680;4.132;2022-08-21T00:09:07;0.62;;;0.62;;
60869;SDS011;46710;43.680;4.132;2022-08-21T00:11:34;1.12;;;0.75;;
60869;SDS011;46710;43.680;4.132;2022-08-21T00:14:00;0.80;;;0.80;;
60869;SDS011;46710;43.680;4.132;2022-08-21T00:16:26;0.70;;;0.70;;
60869;SDS011;46710;43.680;4.132;2022-08-21T00:18:52;0.70;;;0.70;;
60869;SDS011;46710;43.680;4.132;2022-08-21T00:21:19;0.70;;;0.70;;
60869;SDS011;46710;43.680;4.132;2022-08-21T00:23:45;0.80;;;0.80;;
60869;SDS011;46710;43.680;4.132;2022-08-21T00:26:11;0.70;;;0.70;;
60869;SDS011;46710;43.680;4.132;2022-08-21T00:28:37;0.70;;;0.70;;
60869;SDS011;46710;43.680;4.132;2022-08-21T00:31:03;0.68;;;0.68;;
60869;SDS011;46710;43.680;4.132;2022-08-21T00:33:29;0.70;;;0.70;;
60869;SDS011;46710;43.680;4.132;2022-08-21T00:35:56;0.60;;;0.60;;
60869;SDS011;46710;43.680;4.132;2022-08-21T00:38:22;2.35;;;0.90;;
60869;SDS011;46710;43.680;4.132;2022-08-21T00:40:50;1.02;;;0.70;;
60869;SDS011;46710;43.680;4.132;2022-08-21T00:43:18;0.60;;;0.60;;
60869;SDS011;46710;43.680;4.132;2022-08-21T00:45:45;1.10;;;1.00;;
60869;SDS011;46710;43.680;4.132;2022-08-21T00:48:11;0.57;;;0.57;;
60869;SDS011;46710;43.680;4.132;2022-08-21T00:50:40;0.70;;;0.70;;
60869;SDS011;46710;43.680;4.132;2022-08-21T00:53:07;2.55;;;0.80;;
60869;SDS011;46710;43.680;4.132;2022-08-21T00:55:34;0.70;;;0.70;;
60869;SDS011;46710;43.680;4.132;2022-08-21T00:58:02;0.70;;;0.70;;
60869;SDS011;46710;43.680;4.132;2022-08-21T01:00:30;3.70;;;0.82;;
60869;SDS011;46710;43.680;4.132;2022-08-21T01:02:58;1.55;;;0.80;;
60869;SDS011;46710;43.680;4.132;2022-08-21T01:05:25;0.88;;;0.60;;
60869;SDS011;46710;43.680;4.132;2022-08-21T01:07:52;0.60;;;0.60;;
60869;SDS011;46710;43.680;4.132;2022-08-21T01:10:18;2.53;;;0.88;;
60869;SDS011;46710;43.680;4.132;2022-08-21T01:12:45;0.80;;;0.80;;
60869;SDS011;46710;43.680;4.132;2022-08-21T01:15:11;0.80;;;0.80;;
60869;SDS011;46710;43.680;4.132;2022-08-21T01:17:39;1.17;;;0.80;;
60869;SDS011;46710;43.680;4.132;2022-08-21T01:20:07;0.95;;;0.75;;
60869;SDS011;46710;43.680;4.132;2022-08-21T01:22:34;0.70;;;0.70;;
60869;SDS011;46710;43.680;4.132;2022-08-21T01:25:02;1.12;;;0.80;;
60869;SDS011;46710;43.680;4.132;2022-08-21T01:27:29;1.60;;;0.70;;
60869;SDS011;46710;43.680;4.132;2022-08-21T01:29:59;0.60;;;0.60;;
60869;SDS011;46710;43.680;4.132;2022-08-21T01:32:27;0.80;;;0.80;;
60869;SDS011;46710;43.680;4.132;2022-08-21T01:34:53;1.15;;;0.68;;
60869;SDS011;46710;43.680;4.132;2022-08-21T01:37:20;3.58;;;0.70;;
60869;SDS011;46710;43.680;4.132;2022-08-21T01:39:47;0.60;;;0.60;;
60869;SDS011;46710;43.680;4.132;2022-08-21T01:42:14;0.60;;;0.60;;
60869;SDS011;46710;43.680;4.132;2022-08-21T01:44:40;0.60;;;0.60;;
60869;SDS011;46710;43.680;4.132;2022-08-21T01:47:07;2.10;;;0.70;;
60869;SDS011;46710;43.680;4.132;2022-08-21T01:49:34;0.70;;;0.70;;
60869;SDS011;46710;43.680;4.132;2022-08-21T01:52:00;0.60;;;0.60;;
60869;SDS011;46710;43.680;4.132;2022-08-21T01:54:27;2.78;;;0.80;;
60869;SDS011;46710;43.680;4.132;2022-08-21T01:56:53;0.75;;;0.65;;
60869;SDS011;46710;43.680;4.132;2022-08-21T01:59:20;0.70;;;0.70;;
60869;SDS011;46710;43.680;4.132;2022-08-21T02:01:46;0.95;;;0.80;;
60869;SDS011;46710;43.680;4.132;2022-08-21T02:04:13;0.85;;;0.75;;
60869;SDS011;46710;43.680;4.132;2022-08-21T02:06:39;0.77;;;0.77;;
60869;SDS011;46710;43.680;4.132;2022-08-21T02:09:06;1.17;;;1.00;;
60869;SDS011;46710;43.680;4.132;2022-08-21T02:11:33;0.85;;;0.60;;
60869;SDS011;46710;43.680;4.132;2022-08-21T02:13:59;0.70;;;0.70;;
60869;SDS011;46710;43.680;4.132;2022-08-21T02:16:25;0.50;;;0.50;;
60869;SDS011;46710;43.680;4.132;2022-08-21T02:18:51;1.12;;;0.70;;
60869;SDS011;46710;43.680;4.132;2022-08-21T02:21:17;1.83;;;0.70;;
60869;SDS011;46710;43.680;4.132;2022-08-21T02:23:44;0.65;;;0.65;;
60869;SDS011;46710;43.680;4.132;2022-08-21T02:26:10;0.68;;;0.68;;
60869;SDS011;46710;43.680;4.132;2022-08-21T02:28:37;2.90;;;0.60;;
60869;SDS011;46710;43.680;4.132;2022-08-21T02:31:03;2.67;;;0.80;;
60869;SDS011;46710;43.680;4.132;2022-08-21T02:33:29;0.60;;;0.60;;
60869;SDS011;46710;43.680;4.132;2022-08-21T02:35:55;0.70;;;0.70;;
60869;SDS011;46710;43.680;4.132;2022-08-21T02:38:23;0.70;;;0.70;;
60869;SDS011;46710;43.680;4.132;2022-08-21T02:40:50;2.33;;;1.40;;
60869;SDS011;46710;43.680;4.132;2022-08-21T02:43:17;0.90;;;0.90;;
60869;SDS011;46710;43.680;4.132;2022-08-21T02:45:44;1.10;;;0.80;;
60869;SDS011;46710;43.680;4.132;2022-08-21T02:48:12;0.70;;;0.68;;
60869;SDS011;46710;43.680;4.132;2022-08-21T02:50:40;0.75;;;0.65;;
60869;SDS011;46710;43.680;4.132;2022-08-21T02:53:08;0.68;;;0.68;;
60869;SDS011;46710;43.680;4.132;2022-08-21T02:55:35;0.65;;;0.65;;
60869;SDS011;46710;43.680;4.132;2022-08-21T02:58:02;0.70;;;0.70;;
60869;SDS011;46710;43.680;4.132;2022-08-21T03:00:29;0.50;;;0.50;;
60869;SDS011;46710;43.680;4.132;2022-08-21T03:02:55;0.75;;;0.73;;
60869;SDS011;46710;43.680;4.132;2022-08-21T03:05:21;1.08;;;0.60;;
60869;SDS011;46710;43.680;4.132;2022-08-21T03:07:48;0.70;;;0.70;;
60869;SDS011;46710;43.680;4.132;2022-08-21T03:10:15;0.70;;;0.70;;
60869;SDS011;46710;43.680;4.132;2022-08-21T03:12:41;0.60;;;0.60;;
60869;SDS011;46710;43.680;4.132;2022-08-21T03:15:09;0.60;;;0.60;;
60869;SDS011;46710;43.680;4.132;2022-08-21T03:17:35;0.60;;;0.60;;
60869;SDS011;46710;43.680;4.132;2022-08-21T03:20:02;0.50;;;0.50;;
60869;SDS011;46710;43.680;4.132;2022-08-21T03:22:28;0.60;;;0.60;;
60869;SDS011;46710;43.680;4.132;2022-08-21T03:24:54;0.60;;;0.60;;
60869;SDS011;46710;43.680;4.132;2022-08-21T03:27:22;0.70;;;0.70;;
60869;SDS011;46710;43.680;4.132;2022-08-21T03:29:51;0.90;;;0.70;;
60869;SDS011;46710;43.680;4.132;2022-08-21T03:32:17;0.60;;;0.60;;
60869;SDS011;46710;43.680;4.132;2022-08-21T03:34:44;1.20;;;0.62;;
60869;SDS011;46710;43.680;4.132;2022-08-21T03:37:11;1.70;;;0.50;;
60869;SDS011;46710;43.680;4.132;2022-08-21T03:39:38;0.55;;;0.55;;
60869;SDS011;46710;43.680;4.132;2022-08-21T03:42:04;1.08;;;0.75;;
60869;SDS011;46710;43.680;4.132;2022-08-21T03:44:31;0.65;;;0.60;;
60869;SDS011;46710;43.680;4.132;2022-08-21T03:46:57;1.60;;;0.70;;
60869;SDS011;46710;43.680;4.132;2022-08-21T03:49:24;0.85;;;0.70;;
60869;SDS011;46710;43.680;4.132;2022-08-21T03:51:50;0.90;;;0.73;;
60869;SDS011;46710;43.680;4.132;2022-08-21T03:54:17;0.60;;;0.60;;
60869;SDS011;46710;43.680;4.132;2022-08-21T03:56:43;0.68;;;0.68;;
60869;SDS011;46710;43.680;4.132;2022-08-21T03:59:09;0.60;;;0.60;;
60869;SDS011;46710;43.680;4.132;2022-08-21T04:01:35;0.93;;;0.82;;
60869;SDS011;46710;43.680;4.132;2022-08-21T04:04:02;0.70;;;0.70;;
60869;SDS011;46710;43.680;4.132;2022-08-21T04:06:28;0.60;;;0.60;;
60869;SDS011;46710;43.680;4.132;2022-08-21T04:08:54;1.52;;;0.80;;
60869;SDS011;46710;43.680;4.132;2022-08-21T04:11:20;0.75;;;0.60;;
60869;SDS011;46710;43.680;4.132;2022-08-21T04:13:47;0.60;;;0.60;;
60869;SDS011;46710;43.680;4.132;2022-08-21T04:16:14;1.23;;;0.70;;
60869;SDS011;46710;43.680;4.132;2022-08-21T04:18:40;0.60;;;0.60;;
60869;SDS011;46710;43.680;4.132;2022-08-21T04:21:07;0.50;;;0.50;;
60869;SDS011;46710;43.680;4.132;2022-08-21T04:23:35;0.95;;;0.73;;
60869;SDS011;46710;43.680;4.132;2022-08-21T04:26:01;3.22;;;0.80;;
60869;SDS011;46710;43.680;4.132;2022-08-21T04:28:27;0.70;;;0.70;;
60869;SDS011;46710;43.680;4.132;2022-08-21T04:30:53;2.35;;;0.85;;
60869;SDS011;46710;43.680;4.132;2022-08-21T04:33:20;0.60;;;0.60;;
60869;SDS011;46710;43.680;4.132;2022-08-21T04:35:47;0.75;;;0.75;;
60869;SDS011;46710;43.680;4.132;2022-08-21T04:38:13;1.45;;;0.80;;
60869;SDS011;46710;43.680;4.132;2022-08-21T04:40:39;0.68;;;0.68;;
60869;SDS011;46710;43.680;4.132;2022-08-21T04:43:06;0.88;;;0.80;;
60869;SDS011;46710;43.680;4.132;2022-08-21T04:45:37;0.80;;;0.80;;
60869;SDS011;46710;43.680;4.132;2022-08-21T04:48:04;0.60;;;0.60;;
60869;SDS011;46710;43.680;4.132;2022-08-21T04:50:34;0.60;;;0.60;;
60869;SDS011;46710;43.680;4.132;2022-08-21T04:53:09;0.80;;;0.80;;
60869;SDS011;46710;43.680;4.132;2022-08-21T04:55:36;0.70;;;0.70;;
60869;SDS011;46710;43.680;4.132;2022-08-21T04:58:02;0.80;;;0.80;;
60869;SDS011;46710;43.680;4.132;2022-08-21T05:00:30;0.70;;;0.60;;
60869;SDS011;46710;43.680;4.132;2022-08-21T05:02:56;0.60;;;0.60;;
60869;SDS011;46710;43.680;4.132;2022-08-21T05:05:23;0.68;;;0.68;;
60869;SDS011;46710;43.680;4.132;2022-08-21T05:07:50;1.08;;;0.70;;
60869;SDS011;46710;43.680;4.132;2022-08-21T05:10:17;0.70;;;0.62;;
60869;SDS011;46710;43.680;4.132;2022-08-21T05:12:43;1.67;;;0.70;;
60869;SDS011;46710;43.680;4.132;2022-08-21T05:15:10;0.68;;;0.60;;
60869;SDS011;46710;43.680;4.132;2022-08-21T05:17:39;1.00;;;0.70;;
60869;SDS011;46710;43.680;4.132;2022-08-21T05:20:06;0.60;;;0.60;;
60869;SDS011;46710;43.680;4.132;2022-08-21T05:22:32;0.70;;;0.60;;
60869;SDS011;46710;43.680;4.132;2022-08-21T05:24:58;1.27;;;0.70;;
60869;SDS011;46710;43.680;4.132;2022-08-21T05:27:24;0.93;;;0.62;;
60869;SDS011;46710;43.680;4.132;2022-08-21T05:29:50;3.53;;;0.90;;
60869;SDS011;46710;43.680;4.132;2022-08-21T05:32:16;0.75;;;0.75;;
60869;SDS011;46710;43.680;4.132;2022-08-21T05:34:43;0.90;;;0.70;;
60869;SDS011;46710;43.680;4.132;2022-08-21T05:37:12;0.70;;;0.62;;
60869;SDS011;46710;43.680;4.132;2022-08-21T05:39:38;2.47;;;0.68;;
60869;SDS011;46710;43.680;4.132;2022-08-21T05:42:04;0.95;;;0.60;;
60869;SDS011;46710;43.680;4.132;2022-08-21T05:44:30;0.73;;;0.73;;
60869;SDS011;46710;43.680;4.132;2022-08-21T05:47:02;1.35;;;0.77;;
60869;SDS011;46710;43.680;4.132;2022-08-21T05:49:28;0.62;;;0.62;;
60869;SDS011;46710;43.680;4.132;2022-08-21T05:51:54;0.70;;;0.70;;
60869;SDS011;46710;43.680;4.132;2022-08-21T05:54:20;0.73;;;0.70;;
60869;SDS011;46710;43.680;4.132;2022-08-21T05:56:46;2.15;;;0.73;;
60869;SDS011;46710;43.680;4.132;2022-08-21T05:59:12;1.25;;;0.77;;
60869;SDS011;46710;43.680;4.132;2022-08-21T06:01:39;1.00;;;0.77;;
60869;SDS011;46710;43.680;4.132;2022-08-21T06:04:05;1.20;;;0.70;;
60869;SDS011;46710;43.680;4.132;2022-08-21T06:06:32;0.65;;;0.65;;
60869;SDS011;46710;43.680;4.132;2022-08-21T06:08:58;2.70;;;0.82;;
60869;SDS011;46710;43.680;4.132;2022-08-21T06:11:24;0.88;;;0.80;;
60869;SDS011;46710;43.680;4.132;2022-08-21T06:13:50;1.83;;;0.80;;
60869;SDS011;46710;43.680;4.132;2022-08-21T06:16:17;0.93;;;0.80;;
60869;SDS011;46710;43.680;4.132;2022-08-21T06:18:43;1.50;;;1.00;;
60869;SDS011;46710;43.680;4.132;2022-08-21T06:21:10;1.37;;;0.85;;
60869;SDS011;46710;43.680;4.132;2022-08-21T06:23:36;0.70;;;0.70;;
60869;SDS011;46710;43.680;4.132;2022-08-21T06:26:03;1.20;;;0.60;;
60869;SDS011;46710;43.680;4.132;2022-08-21T06:28:30;0.88;;;0.65;;
60869;SDS011;46710;43.680;4.132;2022-08-21T06:30:56;0.60;;;0.60;;
60869;SDS011;46710;43.680;4.132;2022-08-21T06:33:22;0.77;;;0.60;;
60869;SDS011;46710;43.680;4.132;2022-08-21T06:35:49;0.60;;;0.60;;
60869;SDS011;46710;43.680;4.132;2022-08-21T06:38:15;0.70;;;0.60;;
60869;SDS011;46710;43.680;4.132;2022-08-21T06:40:42;0.60;;;0.60;;
60869;SDS011;46710;43.680;4.132;2022-08-21T06:43:09;0.70;;;0.60;;
60869;SDS011;46710;43.680;4.132;2022-08-21T06:45:36;3.83;;;0.70;;
60869;SDS011;46710;43.680;4.132;2022-08-21T06:48:02;0.50;;;0.50;;
60869;SDS011;46710;43.680;4.132;2022-08-21T06:50:28;1.33;;;0.75;;
60869;SDS011;46710;43.680;4.132;2022-08-21T06:53:14;1.37;;;0.80;;
60869;SDS011;46710;43.680;4.132;2022-08-21T06:55:40;2.92;;;0.80;;
60869;SDS011;46710;43.680;4.132;2022-08-21T06:58:07;0.60;;;0.60;;
60869;SDS011;46710;43.680;4.132;2022-08-21T07:00:34;0.60;;;0.60;;
60869;SDS011;46710;43.680;4.132;2022-08-21T07:03:00;0.70;;;0.70;;
60869;SDS011;46710;43.680;4.132;2022-08-21T07:05:27;0.57;;;0.57;;
60869;SDS011;46710;43.680;4.132;2022-08-21T07:07:54;0.60;;;0.60;;
60869;SDS011;46710;43.680;4.132;2022-08-21T07:10:20;0.50;;;0.50;;
60869;SDS011;46710;43.680;4.132;2022-08-21T07:12:46;1.50;;;0.70;;
60869;SDS011;46710;43.680;4.132;2022-08-21T07:15:12;1.12;;;0.60;;
60869;SDS011;46710;43.680;4.132;2022-08-21T07:17:38;0.80;;;0.80;;
60869;SDS011;46710;43.680;4.132;2022-08-21T07:20:05;0.93;;;0.60;;
60869;SDS011;46710;43.680;4.132;2022-08-21T07:22:31;1.50;;;0.73;;
60869;SDS011;46710;43.680;4.132;2022-08-21T07:24:57;0.50;;;0.50;;
60869;SDS011;46710;43.680;4.132;2022-08-21T07:27:23;1.27;;;0.70;;
60869;SDS011;46710;43.680;4.132;2022-08-21T07:29:50;2.05;;;0.70;;
60869;SDS011;46710;43.680;4.132;2022-08-21T07:32:16;2.17;;;0.90;;
60869;SDS011;46710;43.680;4.132;2022-08-21T07:34:42;0.75;;;0.73;;
60869;SDS011;46710;43.680;4.132;2022-08-21T07:37:08;0.95;;;0.60;;
60869;SDS011;46710;43.680;4.132;2022-08-21T07:39:34;0.70;;;0.70;;
60869;SDS011;46710;43.680;4.132;2022-08-21T07:42:00;0.80;;;0.80;;
60869;SDS011;46710;43.680;4.132;2022-08-21T07:44:28;1.70;;;0.70;;
60869;SDS011;46710;43.680;4.132;2022-08-21T07:46:54;0.60;;;0.60;;
60869;SDS011;46710;43.680;4.132;2022-08-21T07:49:20;4.07;;;0.77;;
60869;SDS011;46710;43.680;4.132;2022-08-21T07:51:46;1.30;;;0.60;;
60869;SDS011;46710;43.680;4.132;2022-08-21T07:54:12;1.80;;;0.70;;
60869;SDS011;46710;43.680;4.132;2022-08-21T07:56:38;0.98;;;0.90;;
60869;SDS011;46710;43.680;4.132;2022-08-21T07:59:05;0.85;;;0.60;;
60869;SDS011;46710;43.680;4.132;2022-08-21T08:01:31;0.50;;;0.50;;
60869;SDS011;46710;43.680;4.132;2022-08-21T08:03:58;1.37;;;0.70;;
60869;SDS011;46710;43.680;4.132;2022-08-21T08:06:24;0.60;;;0.60;;
60869;SDS011;46710;43.680;4.132;2022-08-21T08:08:51;1.12;;;0.70;;
60869;SDS011;46710;43.680;4.132;2022-08-21T08:11:17;0.68;;;0.68;;
60869;SDS011;46710;43.680;4.132;2022-08-21T08:13:47;2.95;;;0.60;;
60869;SDS011;46710;43.680;4.132;2022-08-21T08:16:14;1.35;;;0.60;;
60869;SDS011;46710;43.680;4.132;2022-08-21T08:18:40;0.70;;;0.70;;
60869;SDS011;46710;43.680;4.132;2022-08-21T08:21:07;0.75;;;0.75;;
60869;SDS011;46710;43.680;4.132;2022-08-21T08:23:33;0.82;;;0.68;;
60869;SDS011;46710;43.680;4.132;2022-08-21T08:26:00;3.25;;;0.60;;
60869;SDS011;46710;43.680;4.132;2022-08-21T08:28:29;0.90;;;0.70;;
60869;SDS011;46710;43.680;4.132;2022-08-21T08:30:57;0.70;;;0.70;;
60869;SDS011;46710;43.680;4.132;2022-08-21T08:33:23;0.57;;;0.57;;
60869;SDS011;46710;43.680;4.132;2022-08-21T08:35:50;1.87;;;0.70;;
60869;SDS011;46710;43.680;4.132;2022-08-21T08:38:17;2.20;;;0.60;;
60869;SDS011;46710;43.680;4.132;2022-08-21T08:45:44;0.70;;;0.70;;
60869;SDS011;46710;43.680;4.132;2022-08-21T08:48:13;0.60;;;0.60;;
60869;SDS011;46710;43.680;4.132;2022-08-21T08:50:41;1.12;;;0.80;;
60869;SDS011;46710;43.680;4.132;2022-08-21T08:53:15;0.50;;;0.50;;
60869;SDS011;46710;43.680;4.132;2022-08-21T08:55:44;2.67;;;0.70;;
60869;SDS011;46710;43.680;4.132;2022-08-21T08:58:22;0.82;;;0.77;;
60869;SDS011;46710;43.680;4.132;2022-08-21T09:00:50;0.60;;;0.60;;
60869;SDS011;46710;43.680;4.132;2022-08-21T09:03:16;0.70;;;0.70;;
60869;SDS011;46710;43.680;4.132;2022-08-21T09:05:56;2.92;;;0.68;;
60869;SDS011;46710;43.680;4.132;2022-08-21T09:08:45;0.70;;;0.70;;
60869;SDS011;46710;43.680;4.132;2022-08-21T09:13:50;0.50;;;0.50;;
60869;SDS011;46710;43.680;4.132;2022-08-21T09:16:24;0.93;;;0.60;;
60869;SDS011;46710;43.680;4.132;2022-08-21T09:19:05;0.88;;;0.70;;
60869;SDS011;46710;43.680;4.132;2022-08-21T09:26:48;0.77;;;0.77;;
60869;SDS011;46710;43.680;4.132;2022-08-21T09:29:16;0.60;;;0.60;;
60869;SDS011;46710;43.680;4.132;2022-08-21T09:31:45;4.05;;;0.70;;
60869;SDS011;46710;43.680;4.132;2022-08-21T09:34:12;1.12;;;0.82;;
60869;SDS011;46710;43.680;4.132;2022-08-21T09:36:49;0.73;;;0.57;;
60869;SDS011;46710;43.680;4.132;2022-08-21T09:39:24;0.60;;;0.60;;
60869;SDS011;46710;43.680;4.132;2022-08-21T09:42:01;0.70;;;0.60;;
60869;SDS011;46710;43.680;4.132;2022-08-21T09:44:32;0.65;;;0.65;;
60869;SDS011;46710;43.680;4.132;2022-08-21T09:47:01;0.60;;;0.60;;
60869;SDS011;46710;43.680;4.132;2022-08-21T09:49:28;0.65;;;0.65;;
60869;SDS011;46710;43.680;4.132;2022-08-21T09:51:55;4.40;;;0.70;;
60869;SDS011;46710;43.680;4.132;2022-08-21T09:54:23;0.70;;;0.70;;
60869;SDS011;46710;43.680;4.132;2022-08-21T09:59:35;0.98;;;0.95;;
60869;SDS011;46710;43.680;4.132;2022-08-21T10:05:14;1.02;;;0.70;;
60869;SDS011;46710;43.680;4.132;2022-08-21T10:07:41;0.95;;;0.80;;
60869;SDS011;46710;43.680;4.132;2022-08-21T10:10:29;0.60;;;0.60;;
60869;SDS011;46710;43.680;4.132;2022-08-21T10:15:42;0.70;;;0.70;;
60869;SDS011;46710;43.680;4.132;2022-08-21T10:23:17;0.80;;;0.80;;
60869;SDS011;46710;43.680;4.132;2022-08-21T10:25:56;1.20;;;1.00;;
60869;SDS011;46710;43.680;4.132;2022-08-21T10:28:30;1.00;;;0.90;;
60869;SDS011;46710;43.680;4.132;2022-08-21T10:31:00;1.23;;;1.05;;
60869;SDS011;46710;43.680;4.132;2022-08-21T10:41:14;0.80;;;0.80;;
60869;SDS011;46710;43.680;4.132;2022-08-21T10:46:14;0.88;;;0.88;;
60869;SDS011;46710;43.680;4.132;2022-08-21T10:48:47;0.93;;;0.93;;
60869;SDS011;46710;43.680;4.132;2022-08-21T10:56:31;0.73;;;0.73;;
60869;SDS011;46710;43.680;4.132;2022-08-21T11:01:44;0.80;;;0.80;;
60869;SDS011;46710;43.680;4.132;2022-08-21T11:04:24;1.12;;;1.02;;
60869;SDS011;46710;43.680;4.132;2022-08-21T11:06:55;1.08;;;1.00;;
60869;SDS011;46710;43.680;4.132;2022-08-21T11:11:52;0.80;;;0.80;;
60869;SDS011;46710;43.680;4.132;2022-08-21T11:17:08;0.80;;;0.80;;
60869;SDS011;46710;43.680;4.132;2022-08-21T11:19:40;1.12;;;1.02;;
60869;SDS011;46710;43.680;4.132;2022-08-21T11:22:45;0.82;;;0.80;;
60869;SDS011;46710;43.680;4.132;2022-08-21T11:27:33;1.00;;;1.00;;
60869;SDS011;46710;43.680;4.132;2022-08-21T11:30:02;1.00;;;1.00;;
60869;SDS011;46710;43.680;4.132;2022-08-21T11:45:55;2.28;;;1.52;;
60869;SDS011;46710;43.680;4.132;2022-08-21T11:50:53;1.37;;;1.25;;
60869;SDS011;46710;43.680;4.132;2022-08-21T11:53:32;0.90;;;0.90;;
60869;SDS011;46710;43.680;4.132;2022-08-21T11:56:08;1.52;;;1.42;;
60869;SDS011;46710;43.680;4.132;2022-08-21T11:58:48;2.75;;;1.95;;
60869;SDS011;46710;43.680;4.132;2022-08-21T12:01:16;2.25;;;1.17;;
60869;SDS011;46710;43.680;4.132;2022-08-21T12:03:52;0.93;;;0.93;;
60869;SDS011;46710;43.680;4.132;2022-08-21T12:06:27;0.80;;;0.80;;
60869;SDS011;46710;43.680;4.132;2022-08-21T12:08:57;1.00;;;1.00;;
60869;SDS011;46710;43.680;4.132;2022-08-21T12:11:25;1.30;;;1.20;;
60869;SDS011;46710;43.680;4.132;2022-08-21T12:13:53;1.55;;;1.23;;
60869;SDS011;46710;43.680;4.132;2022-08-21T12:16:36;1.45;;;1.35;;
60869;SDS011;46710;43.680;4.132;2022-08-21T12:22:20;1.05;;;1.05;;
60869;SDS011;46710;43.680;4.132;2022-08-21T12:29:30;1.02;;;1.00;;
60869;SDS011;46710;43.680;4.132;2022-08-21T12:34:24;1.37;;;0.98;;
60869;SDS011;46710;43.680;4.132;2022-08-21T12:37:06;0.93;;;0.90;;
60869;SDS011;46710;43.680;4.132;2022-08-21T12:39:33;4.20;;;3.40;;
60869;SDS011;46710;43.680;4.132;2022-08-21T12:42:23;3.95;;;3.37;;
60869;SDS011;46710;43.680;4.132;2022-08-21T12:44:55;2.40;;;2.20;;
60869;SDS011;46710;43.680;4.132;2022-08-21T12:47:36;1.80;;;1.70;;
60869;SDS011;46710;43.680;4.132;2022-08-21T12:50:11;1.40;;;1.30;;
60869;SDS011;46710;43.680;4.132;2022-08-21T12:52:40;0.85;;;0.85;;
60869;SDS011;46710;43.680;4.132;2022-08-21T12:55:15;0.93;;;0.85;;
60869;SDS011;46710;43.680;4.132;2022-08-21T12:57:41;0.82;;;0.80;;
60869;SDS011;46710;43.680;4.132;2022-08-21T13:00:09;1.10;;;1.00;;
60869;SDS011;46710;43.680;4.132;2022-08-21T13:02:38;2.70;;;0.80;;
60869;SDS011;46710;43.680;4.132;2022-08-21T13:05:05;0.75;;;0.75;;
60869;SDS011;46710;43.680;4.132;2022-08-21T13:07:32;0.77;;;0.77;;
60869;SDS011;46710;43.680;4.132;2022-08-21T13:10:05;0.60;;;0.60;;
60869;SDS011;46710;43.680;4.132;2022-08-21T13:12:32;0.60;;;0.60;;
60869;SDS011;46710;43.680;4.132;2022-08-21T13:15:00;1.00;;;0.90;;
60869;SDS011;46710;43.680;4.132;2022-08-21T13:17:29;0.95;;;0.90;;
60869;SDS011;46710;43.680;4.132;2022-08-21T13:19:58;0.90;;;0.90;;
60869;SDS011;46710;43.680;4.132;2022-08-21T13:22:25;0.80;;;0.80;;
60869;SDS011;46710;43.680;4.132;2022-08-21T13:24:52;0.70;;;0.70;;
60869;SDS011;46710;43.680;4.132;2022-08-21T13:27:22;1.55;;;1.00;;
60869;SDS011;46710;43.680;4.132;2022-08-21T13:30:00;0.73;;;0.73;;
60869;SDS011;46710;43.680;4.132;2022-08-21T13:32:26;0.80;;;0.80;;
60869;SDS011;46710;43.680;4.132;2022-08-21T13:34:53;0.73;;;0.73;;
60869;SDS011;46710;43.680;4.132;2022-08-21T13:37:19;0.95;;;0.90;;
60869;SDS011;46710;43.680;4.132;2022-08-21T13:39:53;1.15;;;0.82;;
60869;SDS011;46710;43.680;4.132;2022-08-21T13:42:19;1.23;;;0.80;;
60869;SDS011;46710;43.680;4.132;2022-08-21T13:44:46;0.80;;;0.80;;
60869;SDS011;46710;43.680;4.132;2022-08-21T13:47:14;0.80;;;0.80;;
60869;SDS011;46710;43.680;4.132;2022-08-21T13:49:42;0.90;;;0.90;;
60869;SDS011;46710;43.680;4.132;2022-08-21T13:52:16;0.95;;;0.80;;
60869;SDS011;46710;43.680;4.132;2022-08-21T13:54:51;1.42;;;1.30;;
60869;SDS011;46710;43.680;4.132;2022-08-21T13:57:18;3.92;;;3.58;;
60869;SDS011;46710;43.680;4.132;2022-08-21T13:59:45;4.53;;;4.12;;
60869;SDS011;46710;43.680;4.132;2022-08-21T14:02:15;2.03;;;1.83;;
60869;SDS011;46710;43.680;4.132;2022-08-21T14:04:56;1.23;;;1.12;;
60869;SDS011;46710;43.680;4.132;2022-08-21T14:07:31;0.70;;;0.70;;
60869;SDS011;46710;43.680;4.132;2022-08-21T14:10:00;1.25;;;1.05;;
60869;SDS011;46710;43.680;4.132;2022-08-21T14:12:36;2.25;;;0.70;;
60869;SDS011;46710;43.680;4.132;2022-08-21T14:15:04;1.48;;;1.00;;
60869;SDS011;46710;43.680;4.132;2022-08-21T14:17:32;0.70;;;0.70;;
60869;SDS011;46710;43.680;4.132;2022-08-21T14:19:58;0.60;;;0.60;;
60869;SDS011;46710;43.680;4.132;2022-08-21T14:22:41;0.73;;;0.73;;
60869;SDS011;46710;43.680;4.132;2022-08-21T14:27:36;0.90;;;0.90;;
60869;SDS011;46710;43.680;4.132;2022-08-21T14:30:11;1.00;;;0.88;;
60869;SDS011;46710;43.680;4.132;2022-08-21T14:32:38;0.65;;;0.65;;
60869;SDS011;46710;43.680;4.132;2022-08-21T14:35:05;0.70;;;0.70;;
60869;SDS011;46710;43.680;4.132;2022-08-21T14:37:31;0.82;;;0.82;;
60869;SDS011;46710;43.680;4.132;2022-08-21T14:39:57;0.73;;;0.73;;
60869;SDS011;46710;43.680;4.132;2022-08-21T14:42:24;0.60;;;0.60;;
60869;SDS011;46710;43.680;4.132;2022-08-21T14:44:50;0.75;;;0.75;;
60869;SDS011;46710;43.680;4.132;2022-08-21T14:47:17;0.73;;;0.73;;
60869;SDS011;46710;43.680;4.132;2022-08-21T14:49:43;0.95;;;0.95;;
60869;SDS011;46710;43.680;4.132;2022-08-21T14:52:09;0.77;;;0.77;;
60869;SDS011;46710;43.680;4.132;2022-08-21T14:54:35;0.65;;;0.65;;
60869;SDS011;46710;43.680;4.132;2022-08-21T14:57:06;0.90;;;0.90;;
60869;SDS011;46710;43.680;4.132;2022-08-21T14:59:33;1.10;;;1.00;;
60869;SDS011;46710;43.680;4.132;2022-08-21T15:02:01;1.20;;;1.10;;
60869;SDS011;46710;43.680;4.132;2022-08-21T15:04:29;1.20;;;1.10;;
60869;SDS011;46710;43.680;4.132;2022-08-21T15:06:55;1.00;;;1.00;;
60869;SDS011;46710;43.680;4.132;2022-08-21T15:09:22;0.95;;;0.95;;
60869;SDS011;46710;43.680;4.132;2022-08-21T15:11:48;1.30;;;1.10;;
60869;SDS011;46710;43.680;4.132;2022-08-21T15:14:17;1.02;;;1.02;;
60869;SDS011;46710;43.680;4.132;2022-08-21T15:16:44;1.30;;;1.20;;
60869;SDS011;46710;43.680;4.132;2022-08-21T15:19:10;0.80;;;0.80;;
60869;SDS011;46710;43.680;4.132;2022-08-21T15:21:36;1.05;;;0.93;;
60869;SDS011;46710;43.680;4.132;2022-08-21T15:24:02;0.98;;;0.98;;
60869;SDS011;46710;43.680;4.132;2022-08-21T15:26:28;1.10;;;1.00;;
60869;SDS011;46710;43.680;4.132;2022-08-21T15:28:55;0.88;;;0.85;;
60869;SDS011;46710;43.680;4.132;2022-08-21T15:31:21;0.90;;;0.80;;
60869;SDS011;46710;43.680;4.132;2022-08-21T15:33:47;1.35;;;0.80;;
60869;SDS011;46710;43.680;4.132;2022-08-21T15:36:13;1.00;;;1.00;;
60869;SDS011;46710;43.680;4.132;2022-08-21T15:38:39;0.80;;;0.80;;
60869;SDS011;46710;43.680;4.132;2022-08-21T15:41:05;0.70;;;0.70;;
60869;SDS011;46710;43.680;4.132;2022-08-21T15:43:35;0.90;;;0.80;;
60869;SDS011;46710;43.680;4.132;2022-08-21T15:46:02;0.60;;;0.60;;
60869;SDS011;46710;43.680;4.132;2022-08-21T15:48:30;1.12;;;1.00;;
60869;SDS011;46710;43.680;4.132;2022-08-21T15:50:57;0.80;;;0.80;;
60869;SDS011;46710;43.680;4.132;2022-08-21T15:53:23;0.80;;;0.80;;
60869;SDS011;46710;43.680;4.132;2022-08-21T15:55:49;0.90;;;0.73;;
60869;SDS011;46710;43.680;4.132;2022-08-21T15:58:15;2.08;;;0.70;;
60869;SDS011;46710;43.680;4.132;2022-08-21T16:00:42;1.02;;;0.90;;
60869;SDS011;46710;43.680;4.132;2022-08-21T16:03:09;1.95;;;0.80;;
60869;SDS011;46710;43.680;4.132;2022-08-21T16:05:39;2.45;;;0.90;;
60869;SDS011;46710;43.680;4.132;2022-08-21T16:08:05;1.05;;;0.80;;
60869;SDS011;46710;43.680;4.132;2022-08-21T16:10:32;0.60;;;0.60;;
60869;SDS011;46710;43.680;4.132;2022-08-21T16:13:04;1.10;;;1.00;;
60869;SDS011;46710;43.680;4.132;2022-08-21T16:15:30;0.70;;;0.70;;